sensor_id;sensor_type;location;lat;lon;timestamp;pressure;altitude;pressure_sealevel;temperature;humidity
51999;BME280;38015;50.924;11.598;2022-09-30T00:02:03;98663.46;;;22.73;35.96
51999;BME280;38015;50.924;11.598;2022-09-30T00:04:34;98665.88;;;22.55;36.37
51999;BME280;38015;50.924;11.598;2022-09-30T00:07:04;98665.37;;;22.66;36.13
51999;BME280;38015;50.924;11.598;2022-09-30T00:09:35;98665.16;;;22.69;36.06
51999;BME280;38015;50.924;11.598;2022-09-30T00:12:05;98660.31;;;22.75;35.88
51999;BME280;38015;50.924;11.598;2022-09-30T00:14:35;98660.13;;;22.53;36.34
51999;BME280;38015;50.924;11.598;2022-09-30T00:17:06;98659.52;;;22.73;35.95
51999;BME280;38015;50.924;11.598;2022-09-30T00:19:36;98661.91;;;22.50;36.42
51999;BME280;38015;50.924;11.598;2022-09-30T00:22:07;98665.78;;;22.82;35.73
51999;BME280;38015;50.924;11.598;2022-09-30T00:24:37;98668.06;;;22.68;36.03
51999;BME280;38015;50.924;11.598;2022-09-30T00:27:07;98672.30;;;22.67;36.04
51999;BME280;38015;50.924;11.598;2022-09-30T00:29:38;98671.93;;;22.59;36.21
51999;BME280;38015;50.924;11.598;2022-09-30T00:32:08;98674.43;;;22.59;36.19
51999;BME280;38015;50.924;11.598;2022-09-30T00:34:39;98679.03;;;22.68;36.06
51999;BME280;38015;50.924;11.598;2022-09-30T00:37:09;98681.63;;;22.51;36.42
51999;BME280;38015;50.924;11.598;2022-09-30T00:39:40;98684.27;;;22.55;36.29
51999;BME280;38015;50.924;11.598;2022-09-30T00:42:12;98684.02;;;22.59;36.18
51999;BME280;38015;50.924;11.598;2022-09-30T00:44:45;98684.06;;;22.72;35.90
51999;BME280;38015;50.924;11.598;2022-09-30T00:47:24;98682.57;;;22.61;36.11
51999;BME280;38015;50.924;11.598;2022-09-30T00:49:41;98684.20;;;22.53;36.30
51999;BME280;38015;50.924;11.598;2022-09-30T00:52:14;98684.53;;;22.75;35.83
51999;BME280;38015;50.924;11.598;2022-09-30T00:54:42;98686.16;;;22.65;36.00
51999;BME280;38015;50.924;11.598;2022-09-30T00:57:12;98687.96;;;22.56;36.20
51999;BME280;38015;50.924;11.598;2022-09-30T00:59:46;98690.53;;;22.69;35.96
51999;BME280;38015;50.924;11.598;2022-09-30T01:02:13;98693.37;;;22.72;35.87
51999;BME280;38015;50.924;11.598;2022-09-30T01:04:44;98695.30;;;22.67;35.95
51999;BME280;38015;50.924;11.598;2022-09-30T01:07:14;98696.24;;;22.81;35.67
51999;BME280;38015;50.924;11.598;2022-09-30T01:09:44;98698.30;;;22.78;35.71
51999;BME280;38015;50.924;11.598;2022-09-30T01:12:17;98697.24;;;22.73;35.78
51999;BME280;38015;50.924;11.598;2022-09-30T01:14:47;98695.17;;;22.73;35.78
51999;BME280;38015;50.924;11.598;2022-09-30T01:17:21;98695.70;;;22.65;35.94
51999;BME280;38015;50.924;11.598;2022-09-30T01:20:01;98690.68;;;22.69;35.88
51999;BME280;38015;50.924;11.598;2022-09-30T01:22:22;98687.98;;;22.83;35.54
51999;BME280;38015;50.924;11.598;2022-09-30T01:32:27;98692.73;;;22.76;35.64
51999;BME280;38015;50.924;11.598;2022-09-30T01:34:54;98696.17;;;22.63;35.92
51999;BME280;38015;50.924;11.598;2022-09-30T01:37:22;98700.41;;;22.73;35.69
51999;BME280;38015;50.924;11.598;2022-09-30T01:39:55;98698.70;;;22.67;35.84
51999;BME280;38015;50.924;11.598;2022-09-30T01:42:26;98699.55;;;22.65;35.87
51999;BME280;38015;50.924;11.598;2022-09-30T01:44:57;98699.68;;;22.49;36.19
51999;BME280;38015;50.924;11.598;2022-09-30T01:47:24;98701.45;;;22.68;35.79
51999;BME280;38015;50.924;11.598;2022-09-30T01:49:56;98705.78;;;22.69;35.74
51999;BME280;38015;50.924;11.598;2022-09-30T01:52:24;98710.39;;;22.65;35.79
51999;BME280;38015;50.924;11.598;2022-09-30T01:54:58;98710.34;;;22.81;35.49
51999;BME280;38015;50.924;11.598;2022-09-30T01:57:27;98712.79;;;22.72;35.66
51999;BME280;38015;50.924;11.598;2022-09-30T01:59:57;98717.74;;;22.62;35.87
51999;BME280;38015;50.924;11.598;2022-09-30T02:02:25;98721.59;;;22.42;36.28
51999;BME280;38015;50.924;11.598;2022-09-30T02:04:57;98723.84;;;22.62;35.84
51999;BME280;38015;50.924;11.598;2022-09-30T02:07:28;98724.57;;;22.77;35.51
51999;BME280;38015;50.924;11.598;2022-09-30T02:09:58;98724.32;;;22.48;36.12
51999;BME280;38015;50.924;11.598;2022-09-30T02:12:27;98726.26;;;22.57;35.96
51999;BME280;38015;50.924;11.598;2022-09-30T02:14:58;98729.37;;;22.72;35.63
51999;BME280;38015;50.924;11.598;2022-09-30T02:17:29;98729.29;;;22.32;36.43
51999;BME280;38015;50.924;11.598;2022-09-30T02:19:59;98725.16;;;22.32;36.45
51999;BME280;38015;50.924;11.598;2022-09-30T02:22:31;98724.35;;;22.53;35.99
51999;BME280;38015;50.924;11.598;2022-09-30T02:25:00;98724.12;;;22.61;35.80
51999;BME280;38015;50.924;11.598;2022-09-30T02:27:31;98726.04;;;22.71;35.59
51999;BME280;38015;50.924;11.598;2022-09-30T02:29:59;98725.48;;;22.51;36.00
51999;BME280;38015;50.924;11.598;2022-09-30T02:32:31;98728.34;;;22.73;35.52
51999;BME280;38015;50.924;11.598;2022-09-30T02:35:02;98730.12;;;22.70;35.57
51999;BME280;38015;50.924;11.598;2022-09-30T02:37:33;98736.34;;;22.70;35.57
51999;BME280;38015;50.924;11.598;2022-09-30T02:40:03;98738.86;;;22.56;35.88
51999;BME280;38015;50.924;11.598;2022-09-30T02:42:30;98743.35;;;22.67;35.62
51999;BME280;38015;50.924;11.598;2022-09-30T02:45:02;98745.24;;;22.62;35.71
51999;BME280;38015;50.924;11.598;2022-09-30T02:47:40;98749.25;;;22.47;36.04
51999;BME280;38015;50.924;11.598;2022-09-30T02:50:04;98752.95;;;22.25;36.49
51999;BME280;38015;50.924;11.598;2022-09-30T02:52:41;98756.74;;;22.44;36.08
51999;BME280;38015;50.924;11.598;2022-09-30T02:55:09;98753.62;;;22.84;35.22
51999;BME280;38015;50.924;11.598;2022-09-30T02:57:37;98749.83;;;22.66;35.58
51999;BME280;38015;50.924;11.598;2022-09-30T03:00:05;98750.20;;;22.54;35.80
51999;BME280;38015;50.924;11.598;2022-09-30T03:02:33;98751.80;;;22.58;35.70
51999;BME280;38015;50.924;11.598;2022-09-30T03:05:04;98751.16;;;22.64;35.55
51999;BME280;38015;50.924;11.598;2022-09-30T03:07:34;98755.06;;;22.72;35.40
51999;BME280;38015;50.924;11.598;2022-09-30T03:10:11;98757.20;;;22.76;35.31
51999;BME280;38015;50.924;11.598;2022-09-30T03:12:43;98755.74;;;22.80;35.20
51999;BME280;38015;50.924;11.598;2022-09-30T03:15:15;98755.98;;;22.75;35.32
51999;BME280;38015;50.924;11.598;2022-09-30T03:17:47;98756.05;;;22.64;35.52
51999;BME280;38015;50.924;11.598;2022-09-30T03:20:16;98760.72;;;22.53;35.74
51999;BME280;38015;50.924;11.598;2022-09-30T03:22:48;98765.26;;;22.46;35.91
51999;BME280;38015;50.924;11.598;2022-09-30T03:25:16;98764.41;;;22.66;35.48
51999;BME280;38015;50.924;11.598;2022-09-30T03:27:45;98764.96;;;22.70;35.38
51999;BME280;38015;50.924;11.598;2022-09-30T03:30:12;98769.87;;;22.73;35.32
51999;BME280;38015;50.924;11.598;2022-09-30T03:32:51;98773.08;;;22.84;35.06
51999;BME280;38015;50.924;11.598;2022-09-30T03:35:16;98779.18;;;22.32;36.13
51999;BME280;38015;50.924;11.598;2022-09-30T03:37:47;98784.76;;;22.74;35.26
51999;BME280;38015;50.924;11.598;2022-09-30T03:40:15;98784.04;;;22.49;35.79
51999;BME280;38015;50.924;11.598;2022-09-30T03:42:43;98788.98;;;22.60;35.59
51999;BME280;38015;50.924;11.598;2022-09-30T03:45:13;98791.37;;;22.78;35.11
51999;BME280;38015;50.924;11.598;2022-09-30T03:47:44;98793.20;;;22.50;35.69
51999;BME280;38015;50.924;11.598;2022-09-30T03:50:14;98793.20;;;22.47;35.74
51999;BME280;38015;50.924;11.598;2022-09-30T03:52:41;98796.43;;;22.64;35.38
51999;BME280;38015;50.924;11.598;2022-09-30T03:55:12;98797.29;;;22.43;35.84
51999;BME280;38015;50.924;11.598;2022-09-30T03:57:42;98796.11;;;22.57;35.56
51999;BME280;38015;50.924;11.598;2022-09-30T04:00:13;98789.95;;;22.68;35.29
51999;BME280;38015;50.924;11.598;2022-09-30T04:02:43;98790.00;;;22.47;35.69
51999;BME280;38015;50.924;11.598;2022-09-30T04:05:14;98791.67;;;22.42;35.79
51999;BME280;38015;50.924;11.598;2022-09-30T04:07:45;98792.12;;;22.40;35.81
51999;BME280;38015;50.924;11.598;2022-09-30T04:10:15;98796.40;;;22.24;36.21
51999;BME280;38015;50.924;11.598;2022-09-30T04:12:45;98793.66;;;22.43;35.77
51999;BME280;38015;50.924;11.598;2022-09-30T04:15:15;98796.13;;;22.34;35.94
51999;BME280;38015;50.924;11.598;2022-09-30T04:17:46;98800.26;;;22.28;36.06
51999;BME280;38015;50.924;11.598;2022-09-30T04:20:16;98799.51;;;22.40;35.83
51999;BME280;38015;50.924;11.598;2022-09-30T04:22:46;98796.69;;;22.37;35.87
51999;BME280;38015;50.924;11.598;2022-09-30T04:25:17;98796.29;;;22.30;36.06
51999;BME280;38015;50.924;11.598;2022-09-30T04:27:47;98796.27;;;22.02;36.62
51999;BME280;38015;50.924;11.598;2022-09-30T04:30:18;98799.87;;;22.32;36.01
51999;BME280;38015;50.924;11.598;2022-09-30T04:32:48;98798.45;;;22.21;36.21
51999;BME280;38015;50.924;11.598;2022-09-30T04:35:19;98804.15;;;22.48;35.66
51999;BME280;38015;50.924;11.598;2022-09-30T04:37:49;98811.03;;;22.38;35.84
51999;BME280;38015;50.924;11.598;2022-09-30T04:40:19;98814.08;;;22.41;35.76
51999;BME280;38015;50.924;11.598;2022-09-30T04:42:55;98820.89;;;22.39;35.80
51999;BME280;38015;50.924;11.598;2022-09-30T04:45:20;98826.55;;;22.47;35.67
51999;BME280;38015;50.924;11.598;2022-09-30T04:47:51;98828.58;;;22.36;35.86
51999;BME280;38015;50.924;11.598;2022-09-30T04:50:21;98829.29;;;22.41;35.78
51999;BME280;38015;50.924;11.598;2022-09-30T04:52:52;98835.80;;;22.39;35.82
51999;BME280;38015;50.924;11.598;2022-09-30T04:55:22;98842.17;;;22.11;36.36
51999;BME280;38015;50.924;11.598;2022-09-30T04:57:52;98846.21;;;22.46;35.64
51999;BME280;38015;50.924;11.598;2022-09-30T05:00:23;98841.71;;;21.95;36.70
51999;BME280;38015;50.924;11.598;2022-09-30T05:02:53;98839.41;;;22.18;36.25
51999;BME280;38015;50.924;11.598;2022-09-30T05:05:24;98846.79;;;22.27;36.08
51999;BME280;38015;50.924;11.598;2022-09-30T05:07:59;98851.50;;;22.13;36.28
51999;BME280;38015;50.924;11.598;2022-09-30T05:10:25;98851.36;;;22.52;35.51
51999;BME280;38015;50.924;11.598;2022-09-30T05:12:55;98852.34;;;22.62;35.32
51999;BME280;38015;50.924;11.598;2022-09-30T05:15:25;98850.45;;;22.38;35.76
51999;BME280;38015;50.924;11.598;2022-09-30T05:17:56;98852.17;;;22.24;36.09
51999;BME280;38015;50.924;11.598;2022-09-30T05:20:26;98851.34;;;22.33;35.87
51999;BME280;38015;50.924;11.598;2022-09-30T05:22:57;98851.61;;;22.31;35.84
51999;BME280;38015;50.924;11.598;2022-09-30T05:25:27;98854.08;;;22.22;36.05
51999;BME280;38015;50.924;11.598;2022-09-30T05:27:58;98854.02;;;22.16;36.21
51999;BME280;38015;50.924;11.598;2022-09-30T05:30:28;98856.99;;;22.09;36.35
51999;BME280;38015;50.924;11.598;2022-09-30T05:32:59;98860.93;;;22.04;36.45
51999;BME280;38015;50.924;11.598;2022-09-30T05:35:29;98863.81;;;21.99;36.59
51999;BME280;38015;50.924;11.598;2022-09-30T05:37:59;98866.50;;;22.00;36.56
51999;BME280;38015;50.924;11.598;2022-09-30T05:40:31;98870.27;;;22.05;36.43
51999;BME280;38015;50.924;11.598;2022-09-30T05:43:00;98873.58;;;22.02;36.49
51999;BME280;38015;50.924;11.598;2022-09-30T05:45:31;98874.67;;;22.19;36.08
51999;BME280;38015;50.924;11.598;2022-09-30T05:48:01;98876.01;;;22.35;35.74
51999;BME280;38015;50.924;11.598;2022-09-30T05:50:31;98875.22;;;22.07;36.31
51999;BME280;38015;50.924;11.598;2022-09-30T05:53:02;98878.36;;;22.06;36.34
51999;BME280;38015;50.924;11.598;2022-09-30T05:55:32;98880.64;;;22.52;35.36
51999;BME280;38015;50.924;11.598;2022-09-30T05:58:03;98880.58;;;22.65;35.09
51999;BME280;38015;50.924;11.598;2022-09-30T06:00:33;98881.10;;;22.50;35.40
51999;BME280;38015;50.924;11.598;2022-09-30T06:03:03;98886.27;;;22.51;35.35
51999;BME280;38015;50.924;11.598;2022-09-30T06:05:34;98889.04;;;22.46;35.43
51999;BME280;38015;50.924;11.598;2022-09-30T06:08:04;98890.30;;;22.58;35.09
51999;BME280;38015;50.924;11.598;2022-09-30T06:10:35;98893.00;;;22.06;36.19
51999;BME280;38015;50.924;11.598;2022-09-30T06:13:05;98898.27;;;22.06;36.20
51999;BME280;38015;50.924;11.598;2022-09-30T06:15:36;98901.51;;;21.81;36.65
51999;BME280;38015;50.924;11.598;2022-09-30T06:18:06;98905.03;;;21.84;36.66
51999;BME280;38015;50.924;11.598;2022-09-30T06:20:36;98910.62;;;21.94;36.48
51999;BME280;38015;50.924;11.598;2022-09-30T06:23:07;98912.97;;;21.97;36.44
51999;BME280;38015;50.924;11.598;2022-09-30T06:25:37;98918.50;;;21.81;36.77
51999;BME280;38015;50.924;11.598;2022-09-30T06:28:08;98917.51;;;22.07;36.29
51999;BME280;38015;50.924;11.598;2022-09-30T06:30:38;98919.68;;;21.99;36.45
51999;BME280;38015;50.924;11.598;2022-09-30T06:33:09;98921.92;;;21.99;36.46
51999;BME280;38015;50.924;11.598;2022-09-30T06:35:39;98923.12;;;22.10;36.24
51999;BME280;38015;50.924;11.598;2022-09-30T06:38:09;98924.77;;;21.98;36.51
51999;BME280;38015;50.924;11.598;2022-09-30T06:40:40;98929.74;;;21.99;36.50
51999;BME280;38015;50.924;11.598;2022-09-30T06:43:10;98932.98;;;22.00;36.48
51999;BME280;38015;50.924;11.598;2022-09-30T06:45:41;98937.49;;;22.07;36.35
51999;BME280;38015;50.924;11.598;2022-09-30T06:48:11;98937.91;;;22.00;36.51
51999;BME280;38015;50.924;11.598;2022-09-30T06:50:42;98942.28;;;22.01;36.42
51999;BME280;38015;50.924;11.598;2022-09-30T06:53:12;98947.07;;;22.14;36.18
51999;BME280;38015;50.924;11.598;2022-09-30T06:55:42;98950.75;;;22.25;36.33
51999;BME280;38015;50.924;11.598;2022-09-30T06:58:14;98951.34;;;22.57;35.69
51999;BME280;38015;50.924;11.598;2022-09-30T07:00:43;98956.27;;;22.81;35.23
51999;BME280;38015;50.924;11.598;2022-09-30T07:03:22;98963.31;;;22.84;35.29
51999;BME280;38015;50.924;11.598;2022-09-30T07:05:44;98971.15;;;23.04;34.82
51999;BME280;38015;50.924;11.598;2022-09-30T07:08:14;98973.34;;;23.04;34.92
51999;BME280;38015;50.924;11.598;2022-09-30T07:10:45;98974.04;;;22.96;35.37
51999;BME280;38015;50.924;11.598;2022-09-30T07:13:15;98972.50;;;22.27;35.84
51999;BME280;38015;50.924;11.598;2022-09-30T07:15:46;98978.80;;;21.70;36.07
51999;BME280;38015;50.924;11.598;2022-09-30T07:18:16;98980.40;;;21.43;36.73
51999;BME280;38015;50.924;11.598;2022-09-30T07:20:47;98981.81;;;21.34;36.59
51999;BME280;38015;50.924;11.598;2022-09-30T07:23:17;98987.57;;;21.31;36.04
51999;BME280;38015;50.924;11.598;2022-09-30T07:25:49;98988.78;;;21.20;35.83
51999;BME280;38015;50.924;11.598;2022-09-30T07:28:19;98991.47;;;21.22;35.63
51999;BME280;38015;50.924;11.598;2022-09-30T07:30:48;98991.16;;;21.10;35.68
51999;BME280;38015;50.924;11.598;2022-09-30T07:33:19;98991.99;;;22.04;34.22
51999;BME280;38015;50.924;11.598;2022-09-30T07:35:51;98991.01;;;22.54;33.50
51999;BME280;38015;50.924;11.598;2022-09-30T07:38:21;98988.87;;;22.82;33.16
51999;BME280;38015;50.924;11.598;2022-09-30T07:40:52;98996.18;;;23.07;32.91
51999;BME280;38015;50.924;11.598;2022-09-30T07:43:21;99001.13;;;23.12;33.04
51999;BME280;38015;50.924;11.598;2022-09-30T07:45:51;99008.03;;;23.19;33.17
51999;BME280;38015;50.924;11.598;2022-09-30T07:48:21;99013.40;;;23.28;33.25
51999;BME280;38015;50.924;11.598;2022-09-30T07:50:53;99019.79;;;23.34;33.33
51999;BME280;38015;50.924;11.598;2022-09-30T07:53:22;99023.07;;;23.29;33.56
51999;BME280;38015;50.924;11.598;2022-09-30T07:55:52;99027.22;;;23.33;33.58
51999;BME280;38015;50.924;11.598;2022-09-30T07:58:23;99030.21;;;23.37;33.65
51999;BME280;38015;50.924;11.598;2022-09-30T08:00:53;99034.26;;;22.63;35.01
51999;BME280;38015;50.924;11.598;2022-09-30T08:03:23;99035.17;;;22.91;34.10
51999;BME280;38015;50.924;11.598;2022-09-30T08:05:54;99039.94;;;23.04;33.77
51999;BME280;38015;50.924;11.598;2022-09-30T08:08:24;99043.58;;;23.19;33.47
51999;BME280;38015;50.924;11.598;2022-09-30T08:10:57;99041.07;;;23.12;33.69
51999;BME280;38015;50.924;11.598;2022-09-30T08:13:25;99043.60;;;23.34;33.24
51999;BME280;38015;50.924;11.598;2022-09-30T08:15:55;99043.27;;;23.16;33.62
51999;BME280;38015;50.924;11.598;2022-09-30T08:18:26;99040.73;;;23.12;33.68
51999;BME280;38015;50.924;11.598;2022-09-30T08:20:56;99041.29;;;23.22;33.49
51999;BME280;38015;50.924;11.598;2022-09-30T08:23:27;99041.20;;;23.40;33.14
51999;BME280;38015;50.924;11.598;2022-09-30T08:26:02;99042.55;;;23.27;33.39
51999;BME280;38015;50.924;11.598;2022-09-30T08:28:27;99041.83;;;23.16;33.64
51999;BME280;38015;50.924;11.598;2022-09-30T08:31:03;99041.79;;;23.31;33.33
51999;BME280;38015;50.924;11.598;2022-09-30T08:33:29;99038.46;;;23.18;33.58
51999;BME280;38015;50.924;11.598;2022-09-30T08:36:02;99035.13;;;23.10;33.76
51999;BME280;38015;50.924;11.598;2022-09-30T08:38:29;99034.46;;;23.29;33.37
51999;BME280;38015;50.924;11.598;2022-09-30T08:41:11;99035.78;;;23.21;33.55
51999;BME280;38015;50.924;11.598;2022-09-30T08:43:34;99035.92;;;23.22;33.52
51999;BME280;38015;50.924;11.598;2022-09-30T08:46:04;99038.45;;;23.30;33.39
51999;BME280;38015;50.924;11.598;2022-09-30T08:48:40;99040.04;;;23.38;33.25
51999;BME280;38015;50.924;11.598;2022-09-30T08:51:07;99041.82;;;23.19;33.63
51999;BME280;38015;50.924;11.598;2022-09-30T08:53:34;99042.60;;;23.20;33.63
51999;BME280;38015;50.924;11.598;2022-09-30T08:56:02;99042.77;;;23.26;33.49
51999;BME280;38015;50.924;11.598;2022-09-30T08:58:35;99041.61;;;23.22;33.63
51999;BME280;38015;50.924;11.598;2022-09-30T09:01:10;99044.13;;;23.09;33.90
51999;BME280;38015;50.924;11.598;2022-09-30T09:03:33;99046.29;;;23.29;33.55
51999;BME280;38015;50.924;11.598;2022-09-30T09:06:16;99042.86;;;23.09;33.98
51999;BME280;38015;50.924;11.598;2022-09-30T09:08:45;99038.09;;;23.18;33.81
51999;BME280;38015;50.924;11.598;2022-09-30T09:11:09;99033.33;;;23.36;33.43
51999;BME280;38015;50.924;11.598;2022-09-30T09:13:43;99026.87;;;23.45;33.28
51999;BME280;38015;50.924;11.598;2022-09-30T09:16:10;99023.78;;;23.33;33.51
51999;BME280;38015;50.924;11.598;2022-09-30T09:18:42;99022.71;;;23.35;33.45
51999;BME280;38015;50.924;11.598;2022-09-30T09:21:19;99025.25;;;23.31;33.57
51999;BME280;38015;50.924;11.598;2022-09-30T09:23:37;99025.76;;;23.40;33.44
51999;BME280;38015;50.924;11.598;2022-09-30T09:26:09;99027.67;;;23.45;33.39
51999;BME280;38015;50.924;11.598;2022-09-30T09:28:41;99027.61;;;23.42;33.45
51999;BME280;38015;50.924;11.598;2022-09-30T09:31:12;99028.41;;;23.60;33.13
51999;BME280;38015;50.924;11.598;2022-09-30T09:33:38;99028.61;;;23.48;33.42
51999;BME280;38015;50.924;11.598;2022-09-30T09:36:19;99033.38;;;23.34;33.49
51999;BME280;38015;50.924;11.598;2022-09-30T09:38:52;99033.23;;;23.48;33.23
51999;BME280;38015;50.924;11.598;2022-09-30T09:41:19;99028.90;;;23.29;33.65
51999;BME280;38015;50.924;11.598;2022-09-30T09:43:49;99023.56;;;22.51;35.64
51999;BME280;38015;50.924;11.598;2022-09-30T09:46:15;99027.52;;;22.20;35.76
51999;BME280;38015;50.924;11.598;2022-09-30T09:48:40;99028.04;;;21.77;36.33
51999;BME280;38015;50.924;11.598;2022-09-30T09:51:18;99025.91;;;21.76;35.93
51999;BME280;38015;50.924;11.598;2022-09-30T09:53:47;99020.51;;;22.19;34.77
51999;BME280;38015;50.924;11.598;2022-09-30T09:56:14;99019.04;;;23.18;32.93
51999;BME280;38015;50.924;11.598;2022-09-30T10:01:19;99023.06;;;23.57;32.37
51999;BME280;38015;50.924;11.598;2022-09-30T10:03:42;99024.45;;;23.52;32.57
51999;BME280;38015;50.924;11.598;2022-09-30T10:06:13;99023.61;;;23.61;32.52
51999;BME280;38015;50.924;11.598;2022-09-30T10:08:52;99024.32;;;23.61;32.62
51999;BME280;38015;50.924;11.598;2022-09-30T10:11:20;99020.42;;;23.56;32.82
51999;BME280;38015;50.924;11.598;2022-09-30T10:13:45;99018.19;;;23.69;32.63
51999;BME280;38015;50.924;11.598;2022-09-30T10:16:24;99015.96;;;23.69;32.78
51999;BME280;38015;50.924;11.598;2022-09-30T10:18:45;99016.17;;;23.70;32.90
51999;BME280;38015;50.924;11.598;2022-09-30T10:21:20;99013.21;;;23.61;33.15
51999;BME280;38015;50.924;11.598;2022-09-30T10:23:46;99010.59;;;23.74;32.97
51999;BME280;38015;50.924;11.598;2022-09-30T10:26:18;99008.73;;;23.74;33.07
51999;BME280;38015;50.924;11.598;2022-09-30T10:28:48;99007.48;;;23.73;33.16
51999;BME280;38015;50.924;11.598;2022-09-30T10:31:21;99007.38;;;23.73;33.26
51999;BME280;38015;50.924;11.598;2022-09-30T10:33:52;99005.32;;;23.74;33.32
51999;BME280;38015;50.924;11.598;2022-09-30T10:36:18;99005.35;;;23.76;33.33
51999;BME280;38015;50.924;11.598;2022-09-30T10:38:56;99005.70;;;23.69;33.51
51999;BME280;38015;50.924;11.598;2022-09-30T10:41:21;99005.89;;;23.76;33.51
51999;BME280;38015;50.924;11.598;2022-09-30T10:43:50;99002.20;;;23.76;33.52
51999;BME280;38015;50.924;11.598;2022-09-30T10:46:24;98996.65;;;23.77;33.60
51999;BME280;38015;50.924;11.598;2022-09-30T10:48:51;98994.72;;;23.69;33.80
51999;BME280;38015;50.924;11.598;2022-09-30T10:51:26;98993.53;;;23.79;33.55
51999;BME280;38015;50.924;11.598;2022-09-30T10:53:50;98994.73;;;23.79;33.58
51999;BME280;38015;50.924;11.598;2022-09-30T10:58:52;98985.87;;;23.45;34.47
51999;BME280;38015;50.924;11.598;2022-09-30T11:01:24;98986.98;;;23.75;33.92
51999;BME280;38015;50.924;11.598;2022-09-30T11:03:56;98987.13;;;23.68;34.19
51999;BME280;38015;50.924;11.598;2022-09-30T11:06:22;98988.29;;;23.74;34.21
51999;BME280;38015;50.924;11.598;2022-09-30T11:08:55;98986.40;;;23.81;34.24
51999;BME280;38015;50.924;11.598;2022-09-30T11:11:26;98983.55;;;23.93;34.17
51999;BME280;38015;50.924;11.598;2022-09-30T11:13:55;98978.53;;;23.89;34.38
51999;BME280;38015;50.924;11.598;2022-09-30T11:16:28;98973.44;;;23.93;34.28
51999;BME280;38015;50.924;11.598;2022-09-30T11:19:00;98969.55;;;23.95;34.36
51999;BME280;38015;50.924;11.598;2022-09-30T11:21:32;98966.50;;;23.97;34.47
51999;BME280;38015;50.924;11.598;2022-09-30T11:23:59;98967.36;;;24.00;34.54
51999;BME280;38015;50.924;11.598;2022-09-30T11:26:32;98971.31;;;23.98;34.65
51999;BME280;38015;50.924;11.598;2022-09-30T11:29:07;98974.67;;;24.05;34.65
51999;BME280;38015;50.924;11.598;2022-09-30T11:31:30;98972.01;;;24.04;34.71
51999;BME280;38015;50.924;11.598;2022-09-30T11:36:33;98969.32;;;24.03;35.05
51999;BME280;38015;50.924;11.598;2022-09-30T11:41:29;98970.65;;;23.97;35.55
51999;BME280;38015;50.924;11.598;2022-09-30T11:44:09;98972.84;;;24.03;35.63
51999;BME280;38015;50.924;11.598;2022-09-30T11:46:40;98973.29;;;23.34;35.87
51999;BME280;38015;50.924;11.598;2022-09-30T11:49:10;98974.26;;;23.84;34.55
51999;BME280;38015;50.924;11.598;2022-09-30T11:51:36;98973.69;;;23.89;34.55
51999;BME280;38015;50.924;11.598;2022-09-30T11:54:09;98975.18;;;23.82;34.77
51999;BME280;38015;50.924;11.598;2022-09-30T11:56:38;98974.01;;;23.51;35.48
51999;BME280;38015;50.924;11.598;2022-09-30T11:59:02;98974.51;;;23.43;35.64
51999;BME280;38015;50.924;11.598;2022-09-30T12:01:32;98969.78;;;23.93;34.54
51999;BME280;38015;50.924;11.598;2022-09-30T12:04:07;98969.20;;;23.87;34.61
51999;BME280;38015;50.924;11.598;2022-09-30T12:06:34;98969.90;;;23.88;34.62
51999;BME280;38015;50.924;11.598;2022-09-30T12:09:11;98970.27;;;23.68;35.00
51999;BME280;38015;50.924;11.598;2022-09-30T12:11:37;98974.35;;;23.62;35.04
51999;BME280;38015;50.924;11.598;2022-09-30T12:14:05;98977.94;;;23.80;34.63
51999;BME280;38015;50.924;11.598;2022-09-30T12:16:33;98981.84;;;23.89;34.44
51999;BME280;38015;50.924;11.598;2022-09-30T12:19:12;98982.74;;;23.84;34.58
51999;BME280;38015;50.924;11.598;2022-09-30T12:21:37;98979.25;;;23.68;34.88
51999;BME280;38015;50.924;11.598;2022-09-30T12:24:08;98980.06;;;23.52;35.19
51999;BME280;38015;50.924;11.598;2022-09-30T12:26:34;98979.09;;;23.60;34.99
51999;BME280;38015;50.924;11.598;2022-09-30T12:29:11;98980.79;;;23.26;35.67
51999;BME280;38015;50.924;11.598;2022-09-30T12:31:49;98978.35;;;23.33;35.49
51999;BME280;38015;50.924;11.598;2022-09-30T12:34:17;98980.40;;;23.33;35.43
51999;BME280;38015;50.924;11.598;2022-09-30T12:36:47;98979.54;;;23.28;35.52
51999;BME280;38015;50.924;11.598;2022-09-30T12:39:24;98981.11;;;23.52;35.03
51999;BME280;38015;50.924;11.598;2022-09-30T12:41:47;98978.88;;;23.35;35.30
51999;BME280;38015;50.924;11.598;2022-09-30T12:46:47;98976.42;;;23.16;35.70
51999;BME280;38015;50.924;11.598;2022-09-30T12:49:11;98976.30;;;23.47;35.09
51999;BME280;38015;50.924;11.598;2022-09-30T12:51:41;98974.96;;;23.15;35.70
51999;BME280;38015;50.924;11.598;2022-09-30T12:54:12;98972.44;;;23.32;35.38
51999;BME280;38015;50.924;11.598;2022-09-30T12:56:40;98974.45;;;23.53;34.88
51999;BME280;38015;50.924;11.598;2022-09-30T12:59:10;98973.89;;;23.32;35.26
51999;BME280;38015;50.924;11.598;2022-09-30T13:01:41;98974.53;;;23.42;34.96
51999;BME280;38015;50.924;11.598;2022-09-30T13:04:16;98975.16;;;23.46;34.86
51999;BME280;38015;50.924;11.598;2022-09-30T13:09:18;98977.06;;;23.52;34.71
51999;BME280;38015;50.924;11.598;2022-09-30T13:11:42;98973.95;;;23.39;34.95
51999;BME280;38015;50.924;11.598;2022-09-30T13:14:22;98970.12;;;23.54;34.62
51999;BME280;38015;50.924;11.598;2022-09-30T13:19:19;98970.27;;;23.59;34.52
51999;BME280;38015;50.924;11.598;2022-09-30T13:21:42;98971.00;;;23.68;34.27
51999;BME280;38015;50.924;11.598;2022-09-30T13:24:15;98971.86;;;23.66;34.28
51999;BME280;38015;50.924;11.598;2022-09-30T13:26:45;98976.06;;;23.62;34.42
51999;BME280;38015;50.924;11.598;2022-09-30T13:34:21;98977.90;;;23.63;34.59
51999;BME280;38015;50.924;11.598;2022-09-30T13:39:19;98979.52;;;23.80;34.30